Time;durP1;ratioP1;P1;durP2;ratioP2;P2;SDS_P1;SDS_P2;PMS_P1;PMS_P2;Temp;Humidity;BMP_temperature;BMP_pressure;BME280_temperature;BME280_humidity;BME280_pressure;Samples;Min_cycle;Max_cycle;Signal;HPM_P1;HPM_P2
2022/10/25 00:00:49;;;;;;;176.57;94.18;;;;;;;21.14;69.23;98300.06;4940421;28;20491;-70
2022/10/25 00:03:31;;;;;;;177.55;93.45;;;;;;;21.18;69.25;98299.16;4954763;28;20079;-70
2022/10/25 00:06:20;;;;;;;187.52;96.53;;;;;;;21.14;69.23;98300.06;4940902;28;20109;-70
2022/10/25 00:09:10;;;;;;;203.82;97.28;;;;;;;21.11;68.87;98298.69;4942200;28;20490;-70
2022/10/25 00:11:58;;;;;;;204.07;98.05;;;;;;;21.12;68.84;98303.06;4940492;28;20047;-70
2022/10/25 00:14:40;;;;;;;201.70;95.72;;;;;;;21.08;69.21;98305.56;4941388;28;20051;-70
2022/10/25 00:17:29;;;;;;;186.40;98.00;;;;;;;20.96;69.15;98304.34;4942038;28;20098;-70
2022/10/25 00:20:12;;;;;;;209.23;94.70;;;;;;;21.05;69.64;98308.06;4942916;28;20040;-69
2022/10/25 00:23:03;;;;;;;210.90;96.30;;;;;;;20.97;69.46;98311.44;4939387;28;20337;-70
2022/10/25 00:25:45;;;;;;;225.25;97.07;;;;;;;20.85;69.86;98309.16;4943779;28;20055;-70
2022/10/25 00:28:34;;;;;;;231.60;98.75;;;;;;;20.93;70.09;98312.03;4939026;28;20054;-69
2022/10/25 00:31:16;;;;;;;206.35;97.70;;;;;;;20.92;70.00;98315.88;4913911;28;20042;-70
2022/10/25 00:34:05;;;;;;;201.43;98.30;;;;;;;20.98;69.82;98322.06;4938430;28;20052;-69
2022/10/25 00:36:47;;;;;;;219.10;99.25;;;;;;;20.85;70.52;98320.84;4939078;28;20051;-69
2022/10/25 00:39:37;;;;;;;208.80;101.05;;;;;;;20.83;70.60;98325.78;4942237;28;20063;-70
2022/10/25 00:42:30;;;;;;;205.05;103.35;;;;;;;20.76;70.13;98322.59;4941240;28;20160;-70
2022/10/25 00:45:23;;;;;;;197.40;101.65;;;;;;;20.75;69.75;98325.59;4916954;29;20174;-70
2022/10/25 00:48:11;;;;;;;198.38;104.50;;;;;;;20.64;69.99;98314.03;4920443;29;20048;-70
2022/10/25 00:51:01;;;;;;;189.57;103.88;;;;;;;20.76;69.47;98325.31;4918608;29;20388;-70
2022/10/25 00:53:43;;;;;;;191.10;105.10;;;;;;;20.79;69.66;98322.03;4920570;29;20056;-70
2022/10/25 00:56:44;;;;;;;205.18;105.78;;;;;;;20.70;70.16;98323.75;4906273;29;20064;-71
2022/10/25 00:59:26;;;;;;;204.35;107.15;;;;;;;20.68;69.26;98329.50;4920824;29;20048;-70
2022/10/25 01:02:17;;;;;;;199.30;105.47;;;;;;;20.76;69.27;98328.06;4921415;29;20475;-70
2022/10/25 01:04:59;;;;;;;192.10;106.07;;;;;;;20.81;68.92;98328.00;4948748;29;20047;-70
2022/10/25 01:07:50;;;;;;;194.18;104.32;;;;;;;20.82;69.10;98320.63;4948560;28;20067;-70
2022/10/25 01:10:32;;;;;;;177.48;103.05;;;;;;;20.86;68.77;98327.91;4912554;29;20095;-69
2022/10/25 01:13:28;;;;;;;192.85;102.97;;;;;;;20.93;68.48;98333.84;4909949;29;20036;-70
2022/10/25 01:16:10;;;;;;;175.88;99.70;;;;;;;20.90;68.97;98334.44;4901314;29;20054;-70
2022/10/25 01:19:32;;;;;;;182.75;102.30;;;;;;;21.00;69.30;98332.66;4896949;29;20051;-70
2022/10/25 01:22:27;;;;;;;180.45;99.20;;;;;;;20.99;69.56;98331.06;4931439;29;20641;-69
2022/10/25 01:25:46;;;;;;;182.63;101.72;;;;;;;21.04;69.12;98340.00;4923830;29;20083;-71
2022/10/25 01:28:43;;;;;;;181.32;99.53;;;;;;;21.10;69.49;98351.66;4914138;29;20150;-71
2022/10/25 01:31:44;;;;;;;197.13;103.93;;;;;;;21.06;69.80;98354.16;4910111;29;20044;-71
2022/10/25 01:34:55;;;;;;;185.93;101.70;;;;;;;21.06;72.85;98348.69;4907785;29;20059;-69
2022/10/25 01:37:56;;;;;;;183.68;102.00;;;;;;;21.11;71.13;98356.00;4909978;29;20123;-70
2022/10/25 01:41:02;;;;;;;183.85;102.10;;;;;;;21.11;72.03;98358.72;4909608;29;20060;-70
2022/10/25 01:44:02;;;;;;;176.15;99.90;;;;;;;21.15;71.54;98351.56;4952471;28;20061;-69
2022/10/25 01:46:54;;;;;;;184.18;102.18;;;;;;;21.22;71.40;98354.78;4947621;29;20063;-70
2022/10/25 01:49:47;;;;;;;181.48;100.25;;;;;;;21.27;72.37;98359.38;4947398;29;20066;-70
2022/10/25 01:52:43;;;;;;;176.75;101.60;;;;;;;21.31;72.94;98365.84;4947840;29;20051;-71
2022/10/25 01:55:25;;;;;;;181.07;101.50;;;;;;;21.33;70.97;98362.84;4954658;28;20645;-69
2022/10/25 01:58:32;;;;;;;180.38;100.68;;;;;;;21.44;72.15;98370.63;4966129;28;20058;-69
2022/10/25 02:01:34;;;;;;;188.57;102.15;;;;;;;21.45;70.99;98371.44;4949402;28;20105;-70
2022/10/25 02:04:29;;;;;;;191.27;103.00;;;;;;;21.48;71.48;98376.31;4966281;28;20046;-70
2022/10/25 02:07:21;;;;;;;170.93;97.53;;;;;;;21.55;70.95;98370.47;4938258;29;20062;-70
2022/10/25 02:10:09;;;;;;;177.57;101.38;;;;;;;21.64;70.05;98365.97;4942507;29;20066;-70
2022/10/25 02:13:22;;;;;;;178.48;101.65;;;;;;;21.77;69.79;98369.91;4929937;29;20117;-70
2022/10/25 02:16:23;;;;;;;171.70;100.00;;;;;;;21.88;70.43;98368.66;4946778;29;20059;-70
2022/10/25 02:19:16;;;;;;;186.35;100.93;;;;;;;21.89;71.42;98379.25;4946224;28;20070;-70
2022/10/25 02:22:10;;;;;;;184.30;101.95;;;;;;;22.06;70.46;98384.19;4946928;28;20079;-70
2022/10/25 02:24:54;;;;;;;181.63;103.28;;;;;;;22.27;69.15;98392.09;4929104;29;20133;-71
2022/10/25 02:27:45;;;;;;;181.38;100.88;;;;;;;22.41;69.62;98392.13;4942054;29;20066;-70
2022/10/25 02:30:34;;;;;;;181.77;101.35;;;;;;;22.51;69.25;98397.44;4945539;28;20110;-70
2022/10/25 02:33:23;;;;;;;188.52;100.18;;;;;;;22.67;68.38;98395.22;4946358;28;20768;-71
2022/10/25 02:36:27;;;;;;;166.20;97.13;;;;;;;22.75;68.73;98402.72;4945996;28;20137;-71
2022/10/25 02:39:09;;;;;;;179.98;100.22;;;;;;;22.83;70.09;98404.78;4945894;28;20059;-71
2022/10/25 02:42:01;;;;;;;178.00;97.90;;;;;;;22.88;69.90;98412.09;4944823;29;20067;-70
2022/10/25 02:44:43;;;;;;;164.63;99.28;;;;;;;22.99;70.37;98412.72;4905536;28;20058;-71
2022/10/25 02:47:32;;;;;;;156.35;97.10;;;;;;;23.08;71.05;98410.91;4943534;29;20071;-70
2022/10/25 02:50:21;;;;;;;174.07;94.82;;;;;;;23.18;70.13;98418.94;4944157;29;20106;-70
2022/10/25 02:53:03;;;;;;;164.77;94.90;;;;;;;23.35;69.40;98420.22;4947999;28;20047;-70
2022/10/25 02:56:04;;;;;;;165.32;92.85;;;;;;;23.54;68.38;98426.41;4931222;29;20066;-71
2022/10/25 02:58:55;;;;;;;156.80;87.15;;;;;;;23.62;67.16;98428.41;4945761;29;20142;-71
2022/10/25 03:01:37;;;;;;;137.35;78.18;;;;;;;23.90;64.35;98441.28;4944453;29;20047;-72
2022/10/25 03:04:26;;;;;;;134.77;74.70;;;;;;;23.98;62.68;98438.63;4946303;28;20534;-70
2022/10/25 03:07:08;;;;;;;122.97;72.43;;;;;;;24.09;64.34;98433.69;4946164;29;20418;-71
2022/10/25 03:09:57;;;;;;;126.93;70.47;;;;;;;24.17;62.87;98440.38;4926953;28;20051;-71
2022/10/25 03:12:39;;;;;;;123.95;67.40;;;;;;;24.38;60.23;98441.53;4950507;29;20114;-71
2022/10/25 03:15:28;;;;;;;130.73;63.33;;;;;;;24.49;59.07;98436.56;4949880;28;20150;-71
2022/10/25 03:18:11;;;;;;;123.20;59.53;;;;;;;24.78;56.81;98447.13;4950045;29;20051;-71
2022/10/25 03:21:04;;;;;;;105.47;54.17;;;;;;;24.93;56.42;98445.91;4950942;29;20071;-71
2022/10/25 03:23:46;;;;;;;123.40;56.25;;;;;;;25.09;55.70;98454.56;4934940;29;20461;-71
2022/10/25 03:26:35;;;;;;;110.45;52.58;;;;;;;25.24;56.72;98460.78;4950604;29;20059;-71
2022/10/25 03:29:17;;;;;;;98.32;53.05;;;;;;;25.37;55.92;98459.84;4950532;29;20051;-71
2022/10/25 03:32:06;;;;;;;98.88;52.13;;;;;;;25.42;56.37;98464.41;4950750;29;20078;-72
2022/10/25 03:34:55;;;;;;;106.07;52.90;;;;;;;25.41;53.88;98460.84;4948221;28;20051;-72
2022/10/25 03:37:37;;;;;;;92.72;51.13;;;;;;;25.74;53.78;98468.69;4949921;29;20059;-73
2022/10/25 03:40:26;;;;;;;94.85;49.90;;;;;;;25.94;53.94;98475.53;4951710;29;20098;-73
2022/10/25 03:43:15;;;;;;;104.57;50.45;;;;;;;25.92;53.31;98473.09;4950116;28;20080;-73
2022/10/25 03:46:05;;;;;;;86.25;47.53;;;;;;;26.00;52.50;98473.44;4949767;28;20058;-73
2022/10/25 03:48:46;;;;;;;97.40;48.38;;;;;;;26.23;53.66;98477.66;4949858;28;20474;-73
2022/10/25 03:51:35;;;;;;;86.55;47.90;;;;;;;26.59;54.53;98487.56;4950062;28;20113;-74
2022/10/25 03:54:24;;;;;;;82.90;48.40;;;;;;;26.88;52.94;98486.84;4952057;28;20595;-73
2022/10/25 03:57:13;;;;;;;107.25;48.92;;;;;;;27.19;51.92;98487.72;4968542;28;20058;-72
2022/10/25 03:59:56;;;;;;;96.18;47.60;;;;;;;27.34;49.45;98492.72;4951659;28;20134;-71
2022/10/25 04:02:52;;;;;;;91.45;44.30;;;;;;;27.57;48.93;98500.75;4948061;28;20059;-72
2022/10/25 04:05:34;;;;;;;80.82;43.85;;;;;;;27.67;47.91;98498.44;4945689;28;20062;-71
2022/10/25 04:08:28;;;;;;;82.45;43.17;;;;;;;27.87;47.34;98501.56;4948232;28;20664;-70
2022/10/25 04:11:04;;;;;;;76.03;39.08;;;;;;;27.89;45.70;98500.09;4941009;28;20058;-71
2022/10/25 04:13:53;;;;;;;60.40;37.85;;;;;;;28.43;46.27;98506.84;4942954;29;20431;-71
2022/10/25 04:16:35;;;;;;;67.43;40.03;;;;;;;28.44;45.47;98503.75;4945015;29;20059;-72
2022/10/25 04:19:24;;;;;;;71.55;39.15;;;;;;;28.86;46.03;98503.72;4946801;29;20134;-72
2022/10/25 04:22:06;;;;;;;72.88;38.05;;;;;;;28.96;45.51;98498.91;4943093;28;20051;-72
2022/10/25 04:24:55;;;;;;;69.35;37.10;;;;;;;29.37;45.86;98498.00;4938305;29;20050;-74
2022/10/25 04:27:37;;;;;;;62.40;35.13;;;;;;;29.59;46.81;98505.00;4937562;29;20043;-74
2022/10/25 04:30:26;;;;;;;71.10;34.55;;;;;;;29.79;43.99;98500.56;4944975;29;20047;-73
2022/10/25 04:33:18;;;;;;;62.97;34.55;;;;;;;29.89;43.37;98504.81;4947162;29;20043;-73
2022/10/25 04:36:00;;;;;;;63.47;33.83;;;;;;;29.77;43.28;98513.09;4942649;29;20392;-73
2022/10/25 04:38:49;;;;;;;62.30;34.63;;;;;;;30.35;44.29;98501.88;4947091;28;20426;-72
2022/10/25 04:41:31;;;;;;;64.70;33.92;;;;;;;30.47;42.36;98510.13;4945955;29;20063;-73
2022/10/25 04:44:26;;;;;;;61.08;33.75;;;;;;;30.69;42.96;98508.78;4937685;28;20870;-71
2022/10/25 04:47:15;;;;;;;59.13;31.15;;;;;;;30.92;42.77;98517.34;4946760;28;20047;-73
2022/10/25 04:50:04;;;;;;;62.55;33.53;;;;;;;30.83;41.77;98514.69;4943664;29;20411;-73
2022/10/25 04:52:46;;;;;;;63.72;31.77;;;;;;;31.20;42.79;98513.72;4947208;29;20479;-73
2022/10/25 04:55:35;;;;;;;60.67;30.30;;;;;;;31.20;42.07;98516.47;4948030;28;20079;-70
2022/10/25 04:58:17;;;;;;;58.05;32.38;;;;;;;31.02;41.38;98516.81;4947450;28;20059;-73
2022/10/25 05:01:14;;;;;;;58.67;32.50;;;;;;;31.05;40.10;98520.88;4950345;28;20079;-73
2022/10/25 05:03:56;;;;;;;59.95;33.72;;;;;;;30.82;40.83;98517.81;4947789;28;20118;-73
2022/10/25 05:06:45;;;;;;;64.10;34.95;;;;;;;31.12;43.26;98509.94;4932195;28;20055;-71
2022/10/25 05:09:34;;;;;;;59.10;35.40;;;;;;;31.26;41.47;98515.09;4933048;29;20075;-74
2022/10/25 05:12:28;;;;;;;64.25;36.35;;;;;;;30.89;43.07;98515.25;4934940;28;20078;-72
2022/10/25 05:15:10;;;;;;;70.55;37.05;;;;;;;30.78;40.67;98512.19;4941660;28;20055;-74
2022/10/25 05:18:03;;;;;;;68.10;36.72;;;;;;;30.64;41.28;98507.03;4947700;28;20055;-74
2022/10/25 05:20:56;;;;;;;78.45;36.92;;;;;;;30.55;41.70;98514.69;4967043;28;20066;-75
2022/10/25 05:23:46;;;;;;;73.47;39.35;;;;;;;30.67;41.69;98499.19;4965169;28;20043;-73
2022/10/25 05:26:30;;;;;;;61.63;36.53;;;;;;;30.84;41.44;98504.44;4962084;28;20051;-76
2022/10/25 05:29:19;;;;;;;63.80;36.30;;;;;;;30.75;41.56;98493.50;4964605;28;20054;-75
2022/10/25 05:32:14;;;;;;;68.07;34.83;;;;;;;31.10;44.11;98497.63;4949698;28;20054;-76
2022/10/25 05:34:50;;;;;;;70.00;36.03;;;;;;;31.12;41.25;98492.53;4948292;28;20437;-76
2022/10/25 05:37:45;;;;;;;79.35;37.92;;;;;;;31.06;41.26;98491.19;4960205;28;20049;-74
2022/10/25 05:40:20;;;;;;;70.32;35.58;;;;;;;31.66;41.29;98485.56;4969239;28;20134;-75
2022/10/25 05:43:14;;;;;;;72.70;36.22;;;;;;;31.20;40.57;98489.59;4938230;28;20109;-77
2022/10/25 05:46:07;;;;;;;73.93;37.25;;;;;;;31.02;39.80;98489.09;4945215;28;20122;-73
2022/10/25 05:48:49;;;;;;;76.68;35.35;;;;;;;31.23;41.13;98483.31;4928577;29;20050;-75
2022/10/25 05:51:38;;;;;;;61.78;35.45;;;;;;;30.95;39.64;98477.03;4944153;28;20090;-76
2022/10/25 05:54:22;;;;;;;63.47;34.75;;;;;;;31.36;41.71;98481.25;4930607;28;20127;-74
2022/10/25 05:57:19;;;;;;;77.85;34.45;;;;;;;31.22;41.35;98475.34;4945009;28;20063;-72
2022/10/25 05:59:55;;;;;;;68.07;33.00;;;;;;;31.39;40.75;98477.78;4931736;29;20047;-74
2022/10/25 06:02:43;;;;;;;66.05;34.97;;;;;;;31.53;40.62;98474.56;4946156;28;20051;-76
2022/10/25 06:05:32;;;;;;;70.00;32.05;;;;;;;31.58;40.59;98473.47;4940218;28;20039;-75
2022/10/25 06:08:14;;;;;;;62.38;32.22;;;;;;;31.66;39.49;98466.94;4957730;28;20051;-77
2022/10/25 06:11:08;;;;;;;68.70;35.13;;;;;;;31.52;39.30;98466.59;4939085;28;20372;-74
2022/10/25 06:13:51;;;;;;;74.68;35.00;;;;;;;31.63;40.35;98467.66;4935656;29;20059;-68
2022/10/25 06:16:39;;;;;;;74.88;36.40;;;;;;;31.41;39.56;98458.81;4946800;29;20162;-74
2022/10/25 06:19:21;;;;;;;72.10;35.75;;;;;;;31.92;40.28;98462.78;4949206;28;20046;-76
2022/10/25 06:22:10;;;;;;;72.57;36.05;;;;;;;32.06;41.34;98446.44;4928817;29;20054;-75
2022/10/25 06:24:52;;;;;;;76.90;35.05;;;;;;;31.86;39.35;98450.34;4930117;29;20055;-75
2022/10/25 06:27:41;;;;;;;69.93;34.83;;;;;;;31.58;39.33;98445.75;4946280;29;21005;-74
2022/10/25 06:30:32;;;;;;;63.60;33.80;;;;;;;31.63;40.68;98439.94;4945084;28;20671;-77
2022/10/25 06:33:14;;;;;;;70.68;38.83;;;;;;;31.70;39.66;98444.81;4936055;29;20059;-77
2022/10/25 06:36:13;;;;;;;67.53;38.37;;;;;;;32.01;38.35;98438.38;4932184;29;20403;-75
2022/10/25 06:38:56;;;;;;;72.47;38.80;;;;;;;31.89;38.81;98430.19;4943552;28;20550;-73
2022/10/25 06:41:46;;;;;;;81.95;40.20;;;;;;;31.91;38.76;98428.66;4946687;28;20075;-74
2022/10/25 06:44:28;;;;;;;72.85;36.25;;;;;;;32.18;38.07;98421.34;4946761;28;20043;-74
2022/10/25 06:47:17;;;;;;;87.35;38.90;;;;;;;31.79;37.95;98426.00;4934821;29;20458;-73
2022/10/25 06:49:59;;;;;;;76.55;36.92;;;;;;;32.26;39.34;98422.28;4950809;29;20059;-71
2022/10/25 06:52:53;;;;;;;67.25;36.78;;;;;;;32.36;37.79;98415.31;4949374;29;20071;-72
2022/10/25 06:55:45;;;;;;;74.15;37.08;;;;;;;31.85;37.85;98407.09;4930546;29;20055;-74
2022/10/25 06:58:35;;;;;;;81.45;40.95;;;;;;;32.19;38.94;98406.25;4942844;28;20075;-74
2022/10/25 07:01:20;;;;;;;71.38;38.60;;;;;;;32.03;39.58;98407.53;4949408;28;20067;-74
2022/10/25 07:04:09;;;;;;;84.50;37.90;;;;;;;32.35;39.16;98397.03;4933054;29;20144;-75
2022/10/25 07:06:51;;;;;;;73.95;36.72;;;;;;;32.41;39.94;98395.59;4948814;29;20062;-75
2022/10/25 07:09:47;;;;;;;69.47;37.35;;;;;;;32.11;38.84;98396.19;4932967;29;20058;-75
2022/10/25 07:12:23;;;;;;;66.43;36.10;;;;;;;32.26;37.84;98393.72;4948278;29;20051;-75
2022/10/25 07:15:12;;;;;;;70.32;35.70;;;;;;;32.16;38.23;98390.34;4933730;29;20113;-76
2022/10/25 07:18:01;;;;;;;70.53;35.17;;;;;;;32.47;40.02;98383.00;4949996;28;20121;-76
2022/10/25 07:20:47;;;;;;;87.80;37.80;;;;;;;32.28;37.57;98381.06;4951200;28;20114;-75
2022/10/25 07:23:41;;;;;;;70.63;33.85;;;;;;;32.02;37.77;98378.16;4949062;28;20055;-76
2022/10/25 07:26:32;;;;;;;59.97;30.85;;;;;;;32.03;37.38;98379.78;4940040;28;20386;-75
2022/10/25 07:29:21;;;;;;;63.90;31.30;;;;;;;32.29;38.46;98376.31;4945324;28;20054;-74
2022/10/25 07:32:11;;;;;;;59.25;30.40;;;;;;;32.42;36.68;98374.16;4924682;29;20060;-74
2022/10/25 07:34:53;;;;;;;64.95;30.85;;;;;;;32.67;40.04;98371.88;4947219;28;20071;-76
2022/10/25 07:37:42;;;;;;;58.78;30.52;;;;;;;32.41;38.76;98376.16;4949871;28;20078;-76
2022/10/25 07:40:25;;;;;;;57.28;26.80;;;;;;;32.45;36.44;98377.03;4949217;28;20051;-75
2022/10/25 07:43:20;;;;;;;49.50;26.40;;;;;;;32.48;37.36;98381.03;4949775;28;20538;-77
2022/10/25 07:46:09;;;;;;;41.38;24.77;;;;;;;32.13;35.64;98373.63;4968874;28;20050;-76
2022/10/25 07:48:58;;;;;;;46.45;23.40;;;;;;;32.26;36.04;98374.28;4969051;28;20047;-76
2022/10/25 07:51:47;;;;;;;45.25;24.88;;;;;;;32.03;36.52;98365.91;4968476;28;20109;-76
2022/10/25 07:54:36;;;;;;;58.83;25.13;;;;;;;31.76;37.32;98360.16;4968407;28;20152;-77
2022/10/25 07:57:18;;;;;;;50.25;23.00;;;;;;;31.99;36.09;98355.47;4950363;28;20351;-77
2022/10/25 08:00:07;;;;;;;44.05;23.15;;;;;;;31.94;37.87;98349.41;4970539;28;20105;-74
2022/10/25 08:02:49;;;;;;;46.08;21.95;;;;;;;32.01;36.95;98349.56;4974711;28;20055;-77
2022/10/25 08:05:38;;;;;;;38.05;19.40;;;;;;;31.94;36.73;98350.22;4976617;28;20121;-76
2022/10/25 08:08:29;;;;;;;40.97;18.15;;;;;;;32.08;34.54;98346.16;4967928;28;20073;-76
2022/10/25 08:11:17;;;;;;;40.15;18.77;;;;;;;32.12;34.67;98345.06;4964825;28;20035;-76
2022/10/25 08:13:59;;;;;;;37.45;18.17;;;;;;;32.31;34.69;98341.47;4966937;28;20133;-75
2022/10/25 08:16:48;;;;;;;37.75;19.40;;;;;;;32.22;35.83;98334.50;4963564;28;20542;-77
2022/10/25 08:19:30;;;;;;;36.30;17.10;;;;;;;32.29;33.85;98323.53;4965902;28;20053;-77
2022/10/25 08:22:19;;;;;;;35.38;17.27;;;;;;;32.52;35.01;98318.81;4967243;28;20054;-77
2022/10/25 08:25:03;;;;;;;27.88;17.25;;;;;;;32.52;35.20;98323.56;4964725;28;20038;-76
2022/10/25 08:27:52;;;;;;;35.22;17.55;;;;;;;31.96;34.56;98324.88;4951131;28;20074;-76
2022/10/25 08:30:35;;;;;;;31.17;18.00;;;;;;;32.18;35.02;98321.38;4967051;28;20059;-76
2022/10/25 08:33:23;;;;;;;34.05;17.13;;;;;;;32.15;35.11;98330.44;4963072;28;20042;-74
2022/10/25 08:36:13;;;;;;;36.92;18.13;;;;;;;31.97;35.47;98326.50;4966653;28;20133;-73
2022/10/25 08:39:01;;;;;;;38.42;18.70;;;;;;;32.36;35.47;98320.91;4965779;28;20112;-74
2022/10/25 08:41:53;;;;;;;38.83;19.27;;;;;;;31.96;37.48;98308.22;4955589;28;20544;-76
2022/10/25 08:44:34;;;;;;;45.63;19.67;;;;;;;31.90;38.09;98309.69;4951755;28;20692;-77
2022/10/25 08:47:46;;;;;;;44.35;19.83;;;;;;;32.27;36.30;98306.44;4928298;29;20070;-76
2022/10/25 08:50:33;;;;;;;37.08;17.35;;;;;;;32.21;35.51;98307.94;4946754;29;20047;-76
2022/10/25 08:53:27;;;;;;;33.67;18.30;;;;;;;32.06;36.55;98306.84;4944626;29;20058;-74
2022/10/25 08:56:12;;;;;;;36.63;17.65;;;;;;;32.05;35.51;98308.03;4942606;28;20058;-76
2022/10/25 08:59:04;;;;;;;35.03;18.40;;;;;;;32.07;35.85;98305.69;4947093;29;20078;-74
2022/10/25 09:02:01;;;;;;;37.85;17.60;;;;;;;32.12;35.38;98311.75;4945657;29;20486;-75
2022/10/25 09:04:57;;;;;;;35.55;17.25;;;;;;;31.99;35.00;98311.06;4947146;29;20054;-75
2022/10/25 09:08:03;;;;;;;39.83;18.27;;;;;;;32.37;35.41;98316.97;4948766;28;20091;-72
2022/10/25 09:11:32;;;;;;;30.95;16.70;;;;;;;32.11;34.73;98310.13;4938395;29;20129;-69
2022/10/25 09:15:02;;;;;;;34.13;16.48;;;;;;;32.41;35.44;98306.72;4945423;29;20122;-76
2022/10/25 09:18:00;;;;;;;36.35;18.92;;;;;;;31.95;34.73;98312.19;4940962;28;20141;-77
2022/10/25 09:20:44;;;;;;;35.67;17.73;;;;;;;31.67;36.15;98307.66;4945882;28;20078;-78
2022/10/25 09:23:33;;;;;;;40.40;17.80;;;;;;;31.72;34.39;98307.38;4947158;29;20083;-77
2022/10/25 09:26:44;;;;;;;28.88;15.35;;;;;;;31.76;34.25;98310.22;4942795;29;20474;-77
2022/10/25 09:29:39;;;;;;;32.53;15.93;;;;;;;31.75;34.48;98309.41;4946579;29;20114;-73
2022/10/25 09:32:52;;;;;;;30.15;16.45;;;;;;;31.84;36.79;98306.41;4945949;29;20378;-76
2022/10/25 09:35:53;;;;;;;25.73;17.63;;;;;;;31.83;37.06;98309.53;4944938;29;20051;-76
2022/10/25 09:38:47;;;;;;;33.28;19.38;;;;;;;31.83;36.43;98306.78;4947886;29;20615;-77
2022/10/25 09:41:53;;;;;;;30.40;17.90;;;;;;;31.91;36.25;98305.72;4932499;29;20694;-74
2022/10/25 09:45:03;;;;;;;35.25;17.85;;;;;;;31.86;35.73;98301.28;4926413;29;20055;-75
2022/10/25 09:48:03;;;;;;;28.27;16.25;;;;;;;31.56;36.51;98298.28;4946239;29;20113;-71
2022/10/25 09:51:12;;;;;;;33.22;17.75;;;;;;;31.64;37.39;98302.81;4942668;29;20058;-73
2022/10/25 09:54:10;;;;;;;35.67;18.20;;;;;;;31.60;36.38;98294.44;4948125;28;20046;-77
2022/10/25 09:56:52;;;;;;;46.47;18.63;;;;;;;31.80;36.91;98300.78;4950932;28;20051;-77
2022/10/25 09:59:46;;;;;;;34.78;18.60;;;;;;;31.88;37.17;98298.16;4945550;29;20055;-77
2022/10/25 10:02:45;;;;;;;42.72;17.67;;;;;;;31.50;36.52;98302.53;4945383;29;20062;-74
2022/10/25 10:05:30;;;;;;;49.22;18.75;;;;;;;31.50;37.08;98302.53;4943629;29;20090;-75
2022/10/25 10:08:18;;;;;;;37.97;18.30;;;;;;;31.74;35.71;98307.00;4946817;28;20624;-76
2022/10/25 10:11:21;;;;;;;39.92;18.48;;;;;;;31.74;36.83;98301.47;4946708;29;20043;-77
2022/10/25 10:14:03;;;;;;;43.17;18.48;;;;;;;31.71;36.39;98302.19;4949742;29;20130;-77
2022/10/25 10:16:54;;;;;;;48.97;18.23;;;;;;;31.68;36.55;98298.16;4945698;28;20105;-74
2022/10/25 10:19:43;;;;;;;49.80;18.48;;;;;;;31.53;36.32;98291.50;4947815;28;20138;-76
2022/10/25 10:22:59;;;;;;;37.90;16.65;;;;;;;31.55;37.63;98297.50;4928901;29;20047;-73
2022/10/25 10:25:45;;;;;;;31.92;17.58;;;;;;;31.54;37.14;98304.19;4943702;29;20055;-75
2022/10/25 10:28:35;;;;;;;34.10;19.15;;;;;;;31.31;36.53;98300.50;4931760;28;20167;-74
2022/10/25 10:31:17;;;;;;;36.83;19.02;;;;;;;31.15;36.15;98303.31;4948051;28;20051;-76
2022/10/25 10:34:41;;;;;;;38.05;18.10;;;;;;;30.95;35.56;98303.25;4945577;29;20070;-75
2022/10/25 10:37:33;;;;;;;40.50;19.02;;;;;;;31.23;35.62;98302.31;4950465;29;20054;-76
2022/10/25 10:40:15;;;;;;;38.28;20.10;;;;;;;31.12;36.36;98301.25;4952538;29;20047;-77
2022/10/25 10:43:04;;;;;;;34.45;19.65;;;;;;;31.13;35.78;98306.44;4932482;29;20428;-73
2022/10/25 10:46:14;;;;;;;37.67;19.92;;;;;;;31.09;36.23;98301.97;4944217;28;20109;-75
2022/10/25 10:48:56;;;;;;;37.93;19.87;;;;;;;31.01;37.13;98307.38;4950275;28;20113;-75
2022/10/25 10:51:45;;;;;;;34.30;18.85;;;;;;;30.99;37.72;98301.38;4933496;29;20817;-75
2022/10/25 10:54:39;;;;;;;33.15;19.20;;;;;;;30.96;37.87;98304.88;4928816;29;20106;-73
2022/10/25 10:57:30;;;;;;;37.65;19.10;;;;;;;30.88;38.39;98311.38;4951552;28;20062;-76
2022/10/25 11:00:31;;;;;;;37.38;20.23;;;;;;;30.80;37.92;98309.59;4952000;28;20051;-77
2022/10/25 11:03:41;;;;;;;43.60;18.95;;;;;;;30.78;39.12;98311.91;4952484;28;20057;-74
2022/10/25 11:06:40;;;;;;;38.97;19.88;;;;;;;30.61;39.28;98316.66;4952615;28;20118;-75
2022/10/25 11:09:24;;;;;;;38.17;20.00;;;;;;;30.61;38.40;98321.38;4951489;28;20502;-77
2022/10/25 11:12:18;;;;;;;30.98;18.67;;;;;;;30.56;39.60;98319.69;4947330;28;20051;-75
2022/10/25 11:15:00;;;;;;;37.05;18.60;;;;;;;30.37;40.76;98336.19;4938235;28;20051;-75
2022/10/25 11:18:03;;;;;;;40.53;20.90;;;;;;;30.24;41.15;98339.00;4953182;29;20078;-77
2022/10/25 11:20:55;;;;;;;40.78;21.10;;;;;;;30.24;40.72;98330.69;4934995;29;20141;-76
2022/10/25 11:24:08;;;;;;;47.20;19.42;;;;;;;30.17;40.80;98338.81;4949963;29;20510;-74
2022/10/25 11:27:07;;;;;;;38.67;19.52;;;;;;;29.98;41.33;98342.25;4951519;28;20067;-75
2022/10/25 11:30:08;;;;;;;36.53;20.15;;;;;;;30.03;41.04;98339.22;4927738;29;20134;-73
2022/10/25 11:33:09;;;;;;;35.03;18.73;;;;;;;29.90;42.53;98340.41;4947582;28;20047;-74
2022/10/25 11:36:09;;;;;;;35.13;19.33;;;;;;;29.79;43.29;98337.34;4947452;29;20051;-75
2022/10/25 11:39:04;;;;;;;32.63;18.80;;;;;;;29.85;41.82;98341.47;4948762;29;20086;-72
2022/10/25 11:41:54;;;;;;;40.67;21.45;;;;;;;29.76;42.49;98343.59;4934198;29;20066;-75
2022/10/25 11:45:25;;;;;;;53.45;21.00;;;;;;;29.67;44.13;98345.66;4932146;28;20368;-76
2022/10/25 11:48:32;;;;;;;38.75;21.70;;;;;;;29.56;43.56;98347.28;4930891;29;20062;-77
2022/10/25 11:51:32;;;;;;;42.88;21.35;;;;;;;29.44;44.94;98348.91;4933086;28;20132;-77
2022/10/25 11:54:55;;;;;;;43.35;20.40;;;;;;;29.50;43.20;98343.97;4924289;28;20135;-76
2022/10/25 11:57:52;;;;;;;47.85;22.58;;;;;;;29.45;43.23;98350.53;4956907;28;20154;-76
2022/10/25 12:00:57;;;;;;;52.85;22.02;;;;;;;29.02;45.49;98354.69;4599683;28;10000368;-76
2022/10/25 12:04:08;;;;;;;46.53;21.60;;;;;;;29.17;44.63;98357.94;4927853;29;20570;-78
2022/10/25 12:06:56;;;;;;;38.35;21.65;;;;;;;29.04;45.81;98370.91;4946192;29;20043;-77
2022/10/25 12:10:00;;;;;;;42.15;21.15;;;;;;;28.77;47.10;98362.16;4945282;28;20059;-76
2022/10/25 12:12:59;;;;;;;38.40;21.27;;;;;;;28.60;47.88;98365.91;4945088;29;20055;-78
2022/10/25 12:15:54;;;;;;;46.35;21.35;;;;;;;28.49;48.48;98367.50;4946418;29;20122;-75
2022/10/25 12:18:47;;;;;;;43.25;21.77;;;;;;;28.30;49.97;98376.28;4948752;29;20050;-76
2022/10/25 12:21:53;;;;;;;42.38;23.10;;;;;;;28.23;48.75;98379.59;4950655;29;20059;-74
2022/10/25 12:24:52;;;;;;;48.58;22.33;;;;;;;28.08;50.16;98385.75;4938229;29;20048;-76
2022/10/25 12:27:42;;;;;;;57.88;22.35;;;;;;;27.96;50.77;98382.94;4929593;28;20059;-75
2022/10/25 12:30:24;;;;;;;56.03;23.45;;;;;;;27.95;50.45;98384.88;4941818;28;20479;-75
2022/10/25 12:33:34;;;;;;;50.22;23.67;;;;;;;27.84;50.62;98389.97;4595787;28;10000152;-74
2022/10/25 12:36:22;;;;;;;48.57;25.30;;;;;;;27.72;50.13;98396.22;4935301;28;20052;-73
2022/10/25 12:39:41;;;;;;;52.58;26.02;;;;;;;27.68;50.28;98395.25;4940364;28;20098;-72
2022/10/25 12:42:29;;;;;;;62.92;28.17;;;;;;;27.65;50.88;98392.38;4931815;28;20054;-72
2022/10/25 12:45:31;;;;;;;63.40;31.77;;;;;;;27.61;50.91;98400.53;4942408;28;20058;-74
2022/10/25 12:48:44;;;;;;;62.95;29.95;;;;;;;27.51;50.32;98398.13;4925786;29;20052;-75
2022/10/25 12:51:50;;;;;;;70.57;33.35;;;;;;;27.49;51.86;98406.72;4943870;28;20065;-76
2022/10/25 12:54:53;;;;;;;73.90;33.20;;;;;;;27.46;51.53;98410.19;4943635;28;20047;-74
2022/10/25 12:58:01;;;;;;;94.40;34.60;;;;;;;27.37;51.72;98409.41;4945934;28;20499;-74
2022/10/25 13:01:12;;;;;;;101.15;35.88;;;;;;;27.31;52.59;98421.78;4941651;28;20847;-73
2022/10/25 13:04:13;;;;;;;91.18;36.72;;;;;;;27.35;52.06;98414.44;4939414;28;20686;-74
2022/10/25 13:07:11;;;;;;;91.53;36.33;;;;;;;27.30;52.89;98425.66;4936185;28;20088;-74